Time;durP1;ratioP1;P1;durP2;ratioP2;P2;SDS_P1;SDS_P2;PMS_P1;PMS_P2;Temp;Humidity;BMP_temperature;BMP_pressure;BME280_temperature;BME280_humidity;BME280_pressure;Samples;Min_cycle;Max_cycle;Signal;HPM_P1;HPM_P2
2021/01/21 00:01:00;;;;;;;17.55;9.63;;;14.80;59.90;;;;;;6338036;22;19991;-73
2021/01/21 00:03:30;;;;;;;16.52;9.18;;;14.90;60.00;;;;;;6336989;22;20026;-74
2021/01/21 00:06:01;;;;;;;17.63;9.77;;;14.80;60.00;;;;;;6335677;22;20041;-74
2021/01/21 00:08:28;;;;;;;22.17;10.85;;;14.80;60.00;;;;;;6335834;22;20060;-76
2021/01/21 00:11:00;;;;;;;16.45;8.70;;;14.80;60.00;;;;;;6339231;22;19995;-74
2021/01/21 00:13:40;;;;;;;21.85;10.30;;;14.80;60.00;;;;;;6308396;22;20003;-75
2021/01/21 00:16:11;;;;;;;16.63;9.30;;;14.80;60.00;;;;;;6335963;22;19995;-74
2021/01/21 00:18:42;;;;;;;19.30;9.35;;;14.80;60.00;;;;;;6308426;22;20029;-73
2021/01/21 00:21:20;;;;;;;17.90;9.52;;;14.80;60.00;;;;;;6338421;22;20007;-73
2021/01/21 00:24:00;;;;;;;17.58;9.20;;;14.80;60.00;;;;;;6310502;22;19998;-73
2021/01/21 00:26:29;;;;;;;19.10;9.98;;;14.80;60.00;;;;;;6335864;22;20017;-74
2021/01/21 00:28:57;;;;;;;19.38;8.75;;;14.80;60.10;;;;;;6335407;22;20597;-74
2021/01/21 00:31:23;;;;;;;;;;;14.80;60.10;;;;;;6309571;22;20026;-74
2021/01/21 00:33:53;;;;;;;20.60;9.68;;;14.80;60.10;;;;;;6332091;22;19903;-74
2021/01/21 00:36:33;;;;;;;18.10;9.18;;;14.80;60.10;;;;;;6334900;22;20011;-74
2021/01/21 00:39:12;;;;;;;17.10;8.25;;;14.80;60.10;;;;;;6334160;22;20501;-74
2021/01/21 00:41:51;;;;;;;14.98;8.38;;;14.80;60.10;;;;;;6307770;22;20022;-76
2021/01/21 00:44:20;;;;;;;18.52;9.48;;;14.80;60.10;;;;;;6307541;22;19999;-74
2021/01/21 00:47:00;;;;;;;19.13;9.73;;;14.80;60.10;;;;;;6304011;22;20019;-74
2021/01/21 00:49:30;;;;;;;15.75;8.68;;;14.80;60.20;;;;;;6309622;22;20003;-73
2021/01/21 00:52:10;;;;;;;17.98;9.23;;;14.80;60.10;;;;;;6337289;22;19998;-74
2021/01/21 00:54:40;;;;;;;19.88;8.75;;;14.80;60.20;;;;;;6311716;22;20026;-73
2021/01/21 00:57:20;;;;;;;17.25;8.95;;;14.80;60.20;;;;;;6311558;22;20006;-73
2021/01/21 00:59:51;;;;;;;17.33;9.02;;;14.80;60.20;;;;;;6309153;22;20377;-73
2021/01/21 01:02:24;;;;;;;16.20;8.93;;;14.80;60.20;;;;;;6309896;22;20002;-75
2021/01/21 01:04:56;;;;;;;16.65;9.77;;;14.80;60.20;;;;;;6337529;22;20014;-74
2021/01/21 01:07:35;;;;;;;17.48;9.32;;;14.80;60.20;;;;;;6336699;22;20077;-74
2021/01/21 01:10:02;;;;;;;19.55;9.63;;;14.80;60.20;;;;;;6336249;22;20494;-71
2021/01/21 01:12:36;;;;;;;20.50;9.73;;;14.80;60.20;;;;;;6337436;22;19999;-74
2021/01/21 01:15:15;;;;;;;18.52;9.77;;;14.80;60.20;;;;;;6337452;22;20003;-74
2021/01/21 01:17:45;;;;;;;17.80;9.93;;;14.80;60.20;;;;;;6337576;22;20030;-74
2021/01/21 01:20:11;;;;;;;18.58;9.88;;;14.80;60.20;;;;;;6336714;22;20052;-74
2021/01/21 01:22:37;;;;;;;18.27;9.15;;;14.80;60.20;;;;;;6336557;22;19999;-73
2021/01/21 01:25:06;;;;;;;16.40;9.57;;;14.80;60.20;;;;;;6338750;22;20002;-74
2021/01/21 01:27:45;;;;;;;18.58;9.02;;;14.80;60.20;;;;;;6335753;22;20002;-75
2021/01/21 01:30:26;;;;;;;16.35;9.15;;;14.80;60.20;;;;;;6338101;22;19999;-74
2021/01/21 01:33:05;;;;;;;16.13;8.45;;;14.80;60.20;;;;;;6309608;22;20003;-75
2021/01/21 01:35:31;;;;;;;19.33;10.43;;;14.80;60.20;;;;;;6337749;22;20010;-74
2021/01/21 01:37:59;;;;;;;14.18;9.05;;;14.80;60.20;;;;;;6335484;22;20017;-74
2021/01/21 01:40:31;;;;;;;16.10;8.55;;;14.80;60.20;;;;;;6308440;22;20072;-74
2021/01/21 01:43:02;;;;;;;14.55;8.55;;;14.80;60.20;;;;;;6337614;22;20316;-75
2021/01/21 01:45:42;;;;;;;17.88;9.98;;;14.80;60.20;;;;;;6309838;22;20067;-75
2021/01/21 01:48:10;;;;;;;19.95;10.18;;;14.80;60.20;;;;;;6338809;22;20006;-74
2021/01/21 01:50:36;;;;;;;18.10;8.75;;;14.80;60.20;;;;;;6337609;22;19994;-74
2021/01/21 01:53:05;;;;;;;13.93;8.80;;;14.80;60.20;;;;;;6336036;22;20370;-74
2021/01/21 01:55:35;;;;;;;18.85;10.05;;;14.80;60.20;;;;;;6310194;22;20009;-74
2021/01/21 01:58:09;;;;;;;15.70;8.70;;;14.80;60.20;;;;;;6337549;22;20428;-75
2021/01/21 02:00:40;;;;;;;15.52;8.65;;;14.80;60.20;;;;;;6337389;22;20428;-74
2021/01/21 02:03:09;;;;;;;16.92;8.40;;;14.80;60.20;;;;;;6310544;22;20043;-74
2021/01/21 02:05:45;;;;;;;15.10;8.45;;;14.80;60.20;;;;;;6337869;22;20413;-75
2021/01/21 02:08:10;;;;;;;16.25;9.00;;;14.80;60.30;;;;;;6309689;22;20018;-74
2021/01/21 02:10:41;;;;;;;17.42;9.55;;;14.80;60.30;;;;;;6309602;22;20447;-75
2021/01/21 02:13:17;;;;;;;14.70;8.95;;;14.80;60.30;;;;;;6336806;22;20002;-74
2021/01/21 02:15:55;;;;;;;16.33;8.38;;;14.80;60.30;;;;;;6334915;22;20030;-74
2021/01/21 02:18:48;;;;;;;16.27;8.75;;;14.80;60.30;;;;;;6336459;22;20003;-75
2021/01/21 02:21:41;;;;;;;18.88;8.68;;;14.80;60.30;;;;;;6309558;22;20016;-74
2021/01/21 02:24:56;;;;;;;18.85;9.07;;;14.80;60.30;;;;;;6337220;22;20343;-75
2021/01/21 02:27:42;;;;;;;16.48;9.13;;;14.80;60.30;;;;;;6242104;23;20012;-74
2021/01/21 02:30:32;;;;;;;18.15;9.65;;;14.80;60.30;;;;;;6240954;23;20387;-74
2021/01/21 02:33:22;;;;;;;17.42;9.25;;;14.80;60.30;;;;;;6242729;23;20209;-75
2021/01/21 02:36:03;;;;;;;16.88;8.13;;;14.80;60.30;;;;;;6241080;23;20008;-75
2021/01/21 02:38:37;;;;;;;16.33;8.48;;;14.80;60.30;;;;;;6240875;23;20031;-74
2021/01/21 02:41:17;;;;;;;16.08;8.48;;;14.80;60.40;;;;;;6241673;23;20032;-75
2021/01/21 02:44:03;;;;;;;17.63;8.80;;;14.80;60.30;;;;;;6241549;23;20074;-75
2021/01/21 02:46:35;;;;;;;16.40;8.63;;;14.80;60.30;;;;;;6259340;22;20033;-75
2021/01/21 02:49:01;;;;;;;14.00;8.27;;;14.80;60.30;;;;;;6271514;22;20023;-75
2021/01/21 02:51:54;;;;;;;14.77;8.73;;;14.80;60.30;;;;;;6272834;22;20453;-74
2021/01/21 02:54:23;;;;;;;14.35;9.05;;;14.80;60.30;;;;;;6272247;22;20043;-75
2021/01/21 02:56:57;;;;;;;17.25;9.15;;;14.80;60.30;;;;;;6272317;22;20016;-75
2021/01/21 02:59:26;;;;;;;17.83;9.38;;;14.80;60.30;;;;;;6308549;22;20094;-75
2021/01/21 03:01:59;;;;;;;17.67;9.15;;;14.80;60.40;;;;;;6337247;22;20002;-74
2021/01/21 03:04:39;;;;;;;15.93;8.55;;;14.80;60.40;;;;;;6309658;22;20026;-75
2021/01/21 03:07:10;;;;;;;18.30;9.38;;;14.80;60.40;;;;;;6309746;22;20092;-74
2021/01/21 03:09:52;;;;;;;16.55;9.35;;;14.80;60.40;;;;;;6336527;22;20088;-75
2021/01/21 03:12:27;;;;;;;16.98;8.73;;;14.80;60.40;;;;;;6336996;22;19999;-75
2021/01/21 03:14:56;;;;;;;16.42;8.38;;;14.80;60.40;;;;;;6308467;22;20078;-76
2021/01/21 03:17:23;;;;;;;14.60;9.65;;;14.80;60.40;;;;;;6307466;22;20010;-75
2021/01/21 03:20:02;;;;;;;14.90;8.43;;;14.80;60.40;;;;;;6306755;22;20007;-75
2021/01/21 03:22:28;;;;;;;17.70;9.25;;;14.80;60.30;;;;;;6336978;22;20006;-74
2021/01/21 03:24:59;;;;;;;15.02;8.93;;;14.80;60.30;;;;;;6334963;22;20007;-74
2021/01/21 03:27:33;;;;;;;14.70;8.50;;;14.80;60.30;;;;;;6334395;22;20003;-76
2021/01/21 03:30:06;;;;;;;16.02;8.38;;;14.80;60.30;;;;;;6307561;22;19999;-74
2021/01/21 03:32:44;;;;;;;16.65;9.35;;;14.80;60.40;;;;;;6309328;22;20081;-75
2021/01/21 03:35:12;;;;;;;18.55;8.27;;;14.80;60.40;;;;;;6310133;22;20442;-75
2021/01/21 03:37:43;;;;;;;16.63;9.15;;;14.80;60.40;;;;;;6308895;22;20072;-74
2021/01/21 03:40:14;;;;;;;16.90;9.23;;;14.80;60.40;;;;;;6308636;22;20060;-75
2021/01/21 03:42:41;;;;;;;17.13;9.35;;;14.80;60.40;;;;;;6337876;22;19995;-74
2021/01/21 03:45:07;;;;;;;17.95;9.73;;;14.80;60.40;;;;;;6336813;22;19991;-74
2021/01/21 03:47:36;;;;;;;16.05;9.35;;;14.80;60.40;;;;;;6337372;22;20007;-75
2021/01/21 03:50:03;;;;;;;13.57;8.45;;;14.80;60.40;;;;;;6335684;22;20022;-74
2021/01/21 03:52:39;;;;;;;20.33;9.55;;;14.80;60.30;;;;;;6337997;22;19999;-76
2021/01/21 03:55:11;;;;;;;14.63;8.70;;;14.80;60.30;;;;;;6335485;22;20025;-75
2021/01/21 03:57:41;;;;;;;16.70;8.95;;;14.80;60.30;;;;;;6335725;22;20010;-74
2021/01/21 04:00:21;;;;;;;13.70;8.32;;;14.80;60.30;;;;;;6338923;22;20003;-75
2021/01/21 04:02:49;;;;;;;15.55;8.63;;;14.80;60.30;;;;;;6339217;22;20060;-74
2021/01/21 04:05:15;;;;;;;15.50;8.50;;;14.80;60.40;;;;;;6311032;22;19995;-74
2021/01/21 04:07:45;;;;;;;18.45;9.77;;;14.80;60.40;;;;;;6310928;22;20060;-75
2021/01/21 04:10:16;;;;;;;16.13;9.02;;;14.80;60.40;;;;;;6338191;22;19999;-74
2021/01/21 04:13:08;;;;;;;14.93;8.40;;;14.80;60.40;;;;;;6338664;22;19991;-74
2021/01/21 04:15:36;;;;;;;13.00;8.23;;;14.80;60.30;;;;;;6338471;22;20021;-74
2021/01/21 04:18:09;;;;;;;15.73;8.57;;;14.80;60.40;;;;;;6336618;22;20002;-74
2021/01/21 04:20:40;;;;;;;14.35;8.35;;;14.80;60.40;;;;;;6310441;22;19995;-74
2021/01/21 04:23:06;;;;;;;14.82;8.55;;;14.80;60.40;;;;;;6310096;22;20005;-75
2021/01/21 04:25:37;;;;;;;17.60;9.43;;;14.80;60.40;;;;;;6337933;22;20022;-74
2021/01/21 04:28:07;;;;;;;14.45;8.25;;;14.80;60.40;;;;;;6309821;22;20014;-75
2021/01/21 04:30:33;;;;;;;13.00;7.88;;;14.80;60.30;;;;;;6336277;22;20432;-74
2021/01/21 04:33:02;;;;;;;17.05;8.93;;;14.80;60.30;;;;;;6335427;22;20021;-74
2021/01/21 04:35:43;;;;;;;16.58;9.23;;;14.80;60.30;;;;;;6337923;22;19991;-74
2021/01/21 04:38:11;;;;;;;14.52;8.00;;;14.80;60.30;;;;;;6338103;22;20003;-74
2021/01/21 04:40:43;;;;;;;13.40;8.27;;;14.80;60.30;;;;;;6335965;22;20002;-75
2021/01/21 04:43:15;;;;;;;14.52;8.90;;;14.80;60.30;;;;;;6310598;22;20429;-75
2021/01/21 04:45:49;;;;;;;14.15;8.02;;;14.80;60.30;;;;;;6304982;22;20460;-74
2021/01/21 04:48:16;;;;;;;14.18;8.55;;;14.80;60.40;;;;;;6306894;22;20007;-74
2021/01/21 04:50:42;;;;;;;17.10;8.00;;;14.80;60.40;;;;;;6311066;22;20009;-74
2021/01/21 04:53:10;;;;;;;16.38;7.53;;;14.80;60.40;;;;;;6338079;22;20413;-74
2021/01/21 04:56:05;;;;;;;16.92;8.48;;;14.80;60.40;;;;;;6311157;22;20424;-74
2021/01/21 04:58:42;;;;;;;15.40;8.38;;;14.80;60.40;;;;;;6307908;22;20003;-75
2021/01/21 05:01:13;;;;;;;15.70;8.43;;;14.80;60.40;;;;;;6336475;22;19998;-74
2021/01/21 05:03:39;;;;;;;13.60;8.23;;;14.80;60.40;;;;;;6338467;22;20003;-74
2021/01/21 05:06:14;;;;;;;16.58;8.85;;;14.80;60.40;;;;;;6336926;22;20006;-74
2021/01/21 05:08:45;;;;;;;14.38;8.38;;;14.80;60.40;;;;;;6336899;22;19999;-74
2021/01/21 05:11:22;;;;;;;16.55;8.48;;;14.80;60.40;;;;;;6335398;22;19999;-74
2021/01/21 05:14:09;;;;;;;13.43;8.15;;;14.80;60.40;;;;;;6338236;22;19999;-74
2021/01/21 05:16:49;;;;;;;15.27;8.25;;;14.80;60.40;;;;;;6310627;22;20003;-73
2021/01/21 05:19:15;;;;;;;12.65;6.90;;;14.80;60.40;;;;;;6311003;22;20011;-74
2021/01/21 05:21:49;;;;;;;14.00;8.43;;;14.80;60.50;;;;;;6337227;22;20029;-75
2021/01/21 05:24:19;;;;;;;14.55;7.85;;;14.80;60.40;;;;;;6310969;22;20034;-74
2021/01/21 05:26:45;;;;;;;14.73;8.48;;;14.80;60.40;;;;;;6309895;22;20015;-74
2021/01/21 05:29:23;;;;;;;16.73;8.75;;;14.80;60.40;;;;;;6337684;22;20006;-74
2021/01/21 05:32:04;;;;;;;14.05;8.38;;;14.80;60.50;;;;;;6334804;22;20022;-75
2021/01/21 05:34:42;;;;;;;15.13;9.13;;;14.80;60.50;;;;;;6310881;22;20027;-74
2021/01/21 05:37:11;;;;;;;14.68;8.57;;;14.80;60.50;;;;;;6337061;22;19998;-75
2021/01/21 05:39:51;;;;;;;14.35;7.90;;;14.80;60.50;;;;;;6310032;22;19999;-74
2021/01/21 05:42:23;;;;;;;14.50;7.80;;;14.80;60.40;;;;;;6337884;22;20128;-74
2021/01/21 05:45:08;;;;;;;15.25;7.88;;;14.80;60.50;;;;;;6337610;22;19998;-74
2021/01/21 05:47:59;;;;;;;13.65;7.47;;;14.80;60.50;;;;;;6309351;22;20060;-74
2021/01/21 05:50:36;;;;;;;14.20;7.72;;;14.80;60.50;;;;;;6337128;22;20003;-75
2021/01/21 05:53:11;;;;;;;14.00;8.68;;;14.80;60.50;;;;;;6336053;22;20085;-74
2021/01/21 05:55:38;;;;;;;16.88;8.80;;;14.80;60.50;;;;;;6336002;22;20003;-74
2021/01/21 05:58:21;;;;;;;15.18;8.60;;;14.80;60.50;;;;;;6310008;22;20010;-74
2021/01/21 06:00:50;;;;;;;15.57;8.38;;;14.70;60.50;;;;;;6338148;22;20504;-73
2021/01/21 06:03:23;;;;;;;14.43;7.88;;;14.80;60.50;;;;;;6338849;22;19999;-74
2021/01/21 06:05:57;;;;;;;12.90;8.25;;;14.80;60.50;;;;;;6338548;22;20048;-74
2021/01/21 06:08:23;;;;;;;15.45;9.07;;;14.80;60.50;;;;;;6336422;22;20465;-74
2021/01/21 06:10:51;;;;;;;14.23;7.85;;;14.80;60.50;;;;;;6336650;22;20030;-74
2021/01/21 06:13:18;;;;;;;13.63;8.32;;;14.80;60.50;;;;;;6338128;22;20637;-74
2021/01/21 06:15:49;;;;;;;17.98;9.20;;;14.80;60.50;;;;;;6310927;22;20366;-74
2021/01/21 06:18:20;;;;;;;13.98;7.97;;;14.80;60.50;;;;;;6311488;22;20432;-74
2021/01/21 06:20:50;;;;;;;12.07;7.40;;;14.80;60.50;;;;;;6337565;22;19998;-74
2021/01/21 06:23:39;;;;;;;13.48;7.80;;;14.80;60.50;;;;;;6338511;22;19994;-75
2021/01/21 06:26:11;;;;;;;13.55;8.50;;;14.80;60.50;;;;;;6337885;22;19995;-74
2021/01/21 06:28:46;;;;;;;14.38;7.82;;;14.80;60.50;;;;;;6337519;22;20062;-74
2021/01/21 06:31:14;;;;;;;16.67;8.73;;;14.80;60.50;;;;;;6310032;22;20002;-74
2021/01/21 06:33:44;;;;;;;15.15;8.32;;;14.80;60.50;;;;;;6309913;22;20010;-74
2021/01/21 06:36:26;;;;;;;15.75;7.97;;;14.80;60.50;;;;;;6338330;22;20078;-74
2021/01/21 06:39:00;;;;;;;13.18;7.78;;;14.80;60.50;;;;;;6338288;22;20079;-74
2021/01/21 06:41:29;;;;;;;12.25;7.47;;;14.80;60.50;;;;;;6310365;22;20003;-74
2021/01/21 06:43:56;;;;;;;17.58;8.75;;;14.80;60.50;;;;;;6310036;22;20006;-74
2021/01/21 06:46:27;;;;;;;12.32;7.65;;;14.80;60.50;;;;;;6336562;22;20458;-74
2021/01/21 06:48:57;;;;;;;14.48;7.82;;;14.80;60.40;;;;;;6310595;22;20177;-74
2021/01/21 06:51:27;;;;;;;12.82;7.97;;;14.80;60.40;;;;;;6336312;22;20010;-74
2021/01/21 06:53:58;;;;;;;12.02;7.28;;;14.80;60.40;;;;;;6336701;22;19999;-74
2021/01/21 06:56:34;;;;;;;13.38;7.80;;;14.80;60.30;;;;;;6333763;22;20417;-74
2021/01/21 06:59:04;;;;;;;12.55;8.02;;;14.80;60.30;;;;;;6336409;22;20001;-75
2021/01/21 07:01:30;;;;;;;12.48;8.40;;;14.80;60.30;;;;;;6330721;22;20072;-75
2021/01/21 07:04:04;;;;;;;15.05;8.48;;;14.80;60.30;;;;;;6307529;22;20007;-75
2021/01/21 07:06:51;;;;;;;13.60;7.75;;;14.80;60.30;;;;;;6332922;22;20013;-76
2021/01/21 07:09:23;;;;;;;14.80;8.43;;;14.80;60.20;;;;;;6337298;22;20498;-75
2021/01/21 07:11:55;;;;;;;13.32;7.28;;;14.80;60.20;;;;;;6309805;22;19999;-75
2021/01/21 07:14:32;;;;;;;13.77;7.40;;;14.80;60.20;;;;;;6310523;22;20060;-75
2021/01/21 07:17:06;;;;;;;13.88;7.43;;;14.80;60.20;;;;;;6337065;22;20680;-75
2021/01/21 07:19:37;;;;;;;15.75;8.05;;;14.80;60.20;;;;;;6337121;22;20021;-74
2021/01/21 07:22:18;;;;;;;14.38;8.43;;;14.80;60.30;;;;;;6336561;22;19995;-75
2021/01/21 07:25:13;;;;;;;14.00;7.75;;;14.80;60.20;;;;;;6338057;22;20406;-74
2021/01/21 07:27:49;;;;;;;13.10;8.07;;;14.80;60.20;;;;;;6336356;22;20089;-75
2021/01/21 07:30:25;;;;;;;13.57;8.45;;;14.90;60.20;;;;;;6336906;22;20060;-79
2021/01/21 07:33:29;;;;;;;14.52;8.35;;;14.90;60.20;;;;;;6338332;22;19999;-75
2021/01/21 07:35:55;;;;;;;16.52;8.82;;;14.80;60.20;;;;;;6338828;22;20312;-75
2021/01/21 07:39:05;;;;;;;12.77;7.80;;;14.90;60.20;;;;;;6339261;22;20339;-75
2021/01/21 07:41:43;;;;;;;12.02;7.00;;;14.80;60.20;;;;;;6326085;22;20005;-74
2021/01/21 07:44:24;;;;;;;16.98;8.45;;;14.80;60.20;;;;;;6339136;22;20356;-74
2021/01/21 07:46:50;;;;;;;13.25;7.93;;;14.90;60.20;;;;;;6306422;22;20011;-75
2021/01/21 07:49:28;;;;;;;15.20;8.27;;;14.90;60.20;;;;;;6280299;22;20010;-75
2021/01/21 07:52:07;;;;;;;11.48;7.43;;;14.90;60.10;;;;;;6306744;22;19999;-74
2021/01/21 07:55:09;;;;;;;13.80;8.10;;;14.90;60.10;;;;;;6306349;22;19999;-77
2021/01/21 07:57:39;;;;;;;13.27;7.38;;;15.00;60.20;;;;;;6212582;23;20007;-74
2021/01/21 08:00:12;;;;;;;14.00;7.80;;;14.90;60.10;;;;;;6265091;22;20029;-74
2021/01/21 08:02:48;;;;;;;13.38;7.57;;;14.90;60.10;;;;;;6304925;22;20087;-74
2021/01/21 08:05:28;;;;;;;12.82;8.18;;;14.90;60.00;;;;;;6307566;22;19995;-74
2021/01/21 08:08:03;;;;;;;12.38;7.60;;;14.90;60.00;;;;;;6279470;22;20018;-77
2021/01/21 08:10:34;;;;;;;12.68;7.95;;;14.90;60.00;;;;;;6306984;22;20392;-76
2021/01/21 08:13:02;;;;;;;14.20;7.75;;;15.00;60.00;;;;;;6305363;22;20003;-76
2021/01/21 08:15:30;;;;;;;13.75;8.48;;;15.00;59.90;;;;;;6306552;22;20615;-75
2021/01/21 08:17:57;;;;;;;11.85;7.47;;;15.00;59.90;;;;;;6306606;22;20485;-75
2021/01/21 08:20:39;;;;;;;13.02;7.60;;;15.00;59.90;;;;;;6276967;22;20072;-73
2021/01/21 08:23:09;;;;;;;13.52;7.55;;;15.00;59.90;;;;;;6305074;22;20002;-74
2021/01/21 08:25:55;;;;;;;12.90;7.50;;;15.00;59.80;;;;;;6305616;22;19996;-75
2021/01/21 08:28:23;;;;;;;13.30;7.63;;;15.00;59.80;;;;;;6279685;22;20051;-73
2021/01/21 08:30:49;;;;;;;14.05;8.23;;;15.00;59.80;;;;;;6305144;22;20094;-75
2021/01/21 08:33:24;;;;;;;12.35;7.50;;;15.00;59.80;;;;;;6306343;22;19996;-73
2021/01/21 08:36:04;;;;;;;11.80;7.55;;;15.00;59.80;;;;;;6278712;22;20011;-74
2021/01/21 08:38:46;;;;;;;12.15;7.07;;;15.00;59.70;;;;;;6280985;22;20057;-73
2021/01/21 08:41:19;;;;;;;13.15;7.15;;;15.00;59.70;;;;;;6279270;22;20003;-73
2021/01/21 08:43:47;;;;;;;12.80;7.28;;;15.00;59.70;;;;;;6277170;22;20018;-74
2021/01/21 08:46:24;;;;;;;14.52;8.00;;;15.00;59.70;;;;;;6291274;22;20366;-73
2021/01/21 08:49:15;;;;;;;11.02;6.47;;;15.10;59.70;;;;;;6334536;22;20082;-74
2021/01/21 08:51:44;;;;;;;9.88;6.90;;;15.10;59.70;;;;;;6308679;22;20301;-75
2021/01/21 08:54:20;;;;;;;12.02;7.15;;;15.10;59.60;;;;;;6308036;22;20037;-75
2021/01/21 08:57:08;;;;;;;11.00;6.88;;;15.10;59.60;;;;;;6333557;22;20048;-76
2021/01/21 08:59:35;;;;;;;13.27;8.13;;;15.10;59.60;;;;;;6334883;22;19998;-74
2021/01/21 09:02:01;;;;;;;11.75;6.82;;;15.10;59.60;;;;;;6335495;22;20489;-73
2021/01/21 09:04:37;;;;;;;12.02;7.50;;;15.10;59.60;;;;;;6336107;22;19991;-74
2021/01/21 09:07:25;;;;;;;12.73;7.70;;;15.10;59.60;;;;;;6308178;22;20003;-74
2021/01/21 09:09:55;;;;;;;12.63;7.07;;;15.10;59.50;;;;;;6307968;22;20007;-73
2021/01/21 09:12:26;;;;;;;11.02;6.63;;;15.10;59.50;;;;;;6333712;22;19999;-74
2021/01/21 09:15:24;;;;;;;11.60;7.78;;;15.10;59.50;;;;;;6335624;22;19995;-74
2021/01/21 09:18:10;;;;;;;;;;;15.10;59.50;;;;;;6335912;22;20431;-74
2021/01/21 09:20:48;;;;;;;10.73;6.28;;;15.10;59.40;;;;;;6323284;22;19899;-75
2021/01/21 09:23:20;;;;;;;11.95;6.75;;;15.20;59.40;;;;;;6335464;22;20002;-74
2021/01/21 09:25:51;;;;;;;13.63;8.23;;;15.10;59.50;;;;;;6333883;22;20048;-73
2021/01/21 09:28:17;;;;;;;12.50;7.13;;;15.10;59.50;;;;;;6336034;22;20056;-74
2021/01/21 09:31:10;;;;;;;11.68;7.25;;;15.10;59.50;;;;;;6334361;22;20011;-74
2021/01/21 09:33:50;;;;;;;10.75;6.72;;;15.10;59.50;;;;;;6335691;22;20006;-73
2021/01/21 09:36:16;;;;;;;11.77;7.50;;;15.10;59.40;;;;;;6305255;22;20033;-74
2021/01/21 09:38:47;;;;;;;12.85;7.65;;;15.10;59.50;;;;;;6334284;22;19991;-74
2021/01/21 09:41:18;;;;;;;10.43;6.75;;;15.20;59.50;;;;;;6297123;22;20003;-74
2021/01/21 09:43:48;;;;;;;9.02;6.43;;;15.20;59.40;;;;;;6334269;22;19999;-74
2021/01/21 09:46:19;;;;;;;12.48;7.40;;;15.10;59.40;;;;;;6319274;22;20018;-74
2021/01/21 09:48:49;;;;;;;10.52;6.75;;;15.20;59.40;;;;;;6303739;22;20005;-73
2021/01/21 09:51:20;;;;;;;12.05;6.78;;;15.20;59.30;;;;;;6303663;22;19999;-74
2021/01/21 09:53:50;;;;;;;12.70;6.97;;;15.20;59.30;;;;;;6302593;22;19999;-74
2021/01/21 09:56:44;;;;;;;12.93;7.20;;;15.20;59.20;;;;;;6275518;22;20090;-73
2021/01/21 09:59:15;;;;;;;13.00;7.60;;;15.20;59.20;;;;;;6304334;22;19995;-74
2021/01/21 10:01:41;;;;;;;10.70;6.43;;;15.30;59.10;;;;;;6303464;22;20006;-73
2021/01/21 10:04:20;;;;;;;12.57;7.15;;;15.30;59.10;;;;;;6303194;22;20003;-73
2021/01/21 10:06:55;;;;;;;13.27;8.40;;;15.30;59.00;;;;;;6301258;22;20336;-75
2021/01/21 10:09:42;;;;;;;10.48;6.82;;;15.30;59.00;;;;;;6304784;22;20002;-74
2021/01/21 10:12:13;;;;;;;11.43;6.68;;;15.30;59.00;;;;;;6304022;22;20023;-74
2021/01/21 10:14:43;;;;;;;10.98;6.53;;;15.30;59.00;;;;;;6303492;22;20010;-75
2021/01/21 10:17:09;;;;;;;12.52;7.95;;;15.30;59.00;;;;;;6303236;22;20000;-75
2021/01/21 10:19:47;;;;;;;11.82;6.75;;;15.30;59.00;;;;;;6276381;22;20005;-76
2021/01/21 10:22:12;;;;;;;10.02;7.05;;;15.30;58.90;;;;;;6275683;22;20023;-75
2021/01/21 10:24:44;;;;;;;12.57;7.68;;;15.30;58.90;;;;;;6304001;22;19995;-75
2021/01/21 10:27:26;;;;;;;13.52;8.10;;;15.30;58.90;;;;;;6300805;22;20007;-76
2021/01/21 10:30:05;;;;;;;13.00;7.80;;;15.30;58.90;;;;;;6300925;22;20056;-76
2021/01/21 10:32:36;;;;;;;9.98;6.45;;;15.30;58.80;;;;;;6274804;22;20120;-75
2021/01/21 10:35:08;;;;;;;12.25;6.97;;;15.30;58.90;;;;;;6302611;22;20363;-74
2021/01/21 10:37:38;;;;;;;11.73;6.95;;;15.30;58.90;;;;;;6290240;22;20011;-75
2021/01/21 10:40:09;;;;;;;11.60;6.95;;;15.30;59.00;;;;;;6302171;22;19999;-74
2021/01/21 10:42:49;;;;;;;11.93;7.10;;;15.30;59.00;;;;;;6275873;22;20095;-75
2021/01/21 10:45:18;;;;;;;11.02;6.22;;;15.30;59.00;;;;;;6304201;22;20004;-75
2021/01/21 10:47:49;;;;;;;11.18;6.70;;;15.30;59.00;;;;;;6332505;22;20003;-74
2021/01/21 10:50:19;;;;;;;10.30;6.68;;;15.30;58.90;;;;;;6333240;22;20031;-74
2021/01/21 10:52:50;;;;;;;11.63;7.18;;;15.30;58.90;;;;;;6333953;22;19994;-74
2021/01/21 10:55:28;;;;;;;11.57;7.38;;;15.30;58.90;;;;;;6331894;22;20039;-76
2021/01/21 10:58:06;;;;;;;11.55;6.70;;;15.30;58.90;;;;;;6332861;22;20313;-75
2021/01/21 11:00:32;;;;;;;12.70;6.93;;;15.30;58.90;;;;;;6332576;22;19998;-75
2021/01/21 11:03:12;;;;;;;11.10;6.43;;;15.30;58.90;;;;;;6332077;22;20115;-74
2021/01/21 11:05:40;;;;;;;10.48;6.28;;;15.30;58.90;;;;;;6334084;22;20056;-74
2021/01/21 11:08:07;;;;;;;10.27;6.53;;;15.30;58.80;;;;;;6339141;22;20362;-75
2021/01/21 11:10:38;;;;;;;9.60;6.25;;;15.30;58.80;;;;;;6310786;22;20041;-74
2021/01/21 11:13:06;;;;;;;11.45;7.30;;;15.30;58.80;;;;;;6337340;22;20071;-75
2021/01/21 11:15:44;;;;;;;10.23;6.25;;;15.30;58.80;;;;;;6335986;22;19995;-74
2021/01/21 11:18:10;;;;;;;11.55;7.18;;;15.30;58.80;;;;;;6335931;22;20018;-75
2021/01/21 11:20:39;;;;;;;10.50;6.20;;;15.30;58.80;;;;;;6337391;22;19995;-74
2021/01/21 11:23:10;;;;;;;9.82;6.25;;;15.30;58.70;;;;;;6339802;22;20329;-74
2021/01/21 11:25:53;;;;;;;8.18;5.30;;;15.30;58.70;;;;;;6337096;22;20755;-75
2021/01/21 11:28:28;;;;;;;9.90;6.22;;;15.30;58.70;;;;;;6334934;22;20010;-75
2021/01/21 11:30:59;;;;;;;13.85;7.85;;;15.40;58.70;;;;;;6339054;22;20008;-74
2021/01/21 11:33:29;;;;;;;9.30;6.68;;;15.30;58.70;;;;;;6310128;22;20569;-74
2021/01/21 11:36:20;;;;;;;12.05;6.88;;;15.40;58.70;;;;;;6337676;22;20018;-75
2021/01/21 11:38:46;;;;;;;9.93;6.10;;;15.30;58.70;;;;;;6336223;22;20003;-74
2021/01/21 11:41:12;;;;;;;13.73;7.28;;;15.40;58.60;;;;;;6308368;22;19999;-75
2021/01/21 11:43:43;;;;;;;11.00;6.90;;;15.30;58.60;;;;;;6333983;22;20056;-74
2021/01/21 11:46:13;;;;;;;9.50;6.32;;;15.40;58.60;;;;;;6319976;22;20046;-74
2021/01/21 11:48:39;;;;;;;10.48;6.45;;;15.40;58.60;;;;;;6305374;22;20072;-75
2021/01/21 11:51:09;;;;;;;10.35;6.00;;;15.40;58.60;;;;;;6277456;22;20035;-74
2021/01/21 11:53:39;;;;;;;11.75;6.70;;;15.40;58.60;;;;;;6278055;22;20082;-75
2021/01/21 11:56:10;;;;;;;11.40;6.70;;;15.40;58.60;;;;;;6304612;22;20039;-74
2021/01/21 11:58:57;;;;;;;10.13;6.13;;;15.40;58.60;;;;;;6303868;22;20011;-74
2021/01/21 12:01:28;;;;;;;10.93;6.60;;;15.40;58.60;;;;;;6305234;22;20061;-74
2021/01/21 12:03:58;;;;;;;9.68;6.13;;;15.40;58.50;;;;;;6303419;22;20028;-74
2021/01/21 12:06:29;;;;;;;9.52;6.65;;;15.40;58.60;;;;;;6278123;22;20035;-75
2021/01/21 12:08:59;;;;;;;10.57;7.07;;;15.40;58.60;;;;;;6304112;22;20364;-74
2021/01/21 12:11:28;;;;;;;11.23;6.63;;;15.40;58.50;;;;;;6303883;22;20320;-74
2021/01/21 12:13:57;;;;;;;10.52;6.60;;;15.40;58.50;;;;;;6305492;22;19992;-74
2021/01/21 12:16:31;;;;;;;11.02;6.47;;;15.40;58.50;;;;;;6305579;22;20333;-74
2021/01/21 12:19:08;;;;;;;11.68;7.10;;;15.50;58.40;;;;;;6304554;22;20003;-75
2021/01/21 12:21:47;;;;;;;10.60;6.82;;;15.50;58.40;;;;;;6307637;22;19998;-74
2021/01/21 12:24:27;;;;;;;12.02;6.90;;;15.50;58.30;;;;;;6279978;22;20302;-74
2021/01/21 12:26:57;;;;;;;9.32;6.13;;;15.50;58.20;;;;;;6305571;22;19999;-74
2021/01/21 12:29:38;;;;;;;9.02;5.95;;;15.50;58.10;;;;;;6306688;22;20003;-75
2021/01/21 12:32:15;;;;;;;8.43;5.55;;;15.50;58.10;;;;;;6280288;22;20000;-75
2021/01/21 12:34:47;;;;;;;9.55;6.25;;;15.60;58.10;;;;;;6307394;22;19999;-75
2021/01/21 12:37:13;;;;;;;8.55;6.13;;;15.60;58.00;;;;;;6304366;22;20003;-74
2021/01/21 12:39:43;;;;;;;10.77;6.47;;;15.60;58.00;;;;;;6279560;22;20532;-76
2021/01/21 12:42:09;;;;;;;10.07;6.40;;;15.60;58.10;;;;;;6306312;22;19999;-75
2021/01/21 12:44:35;;;;;;;10.75;6.50;;;15.60;58.10;;;;;;6304152;22;20353;-75
2021/01/21 12:47:05;;;;;;;9.40;6.50;;;15.60;58.10;;;;;;6305494;22;20011;-76
2021/01/21 12:49:36;;;;;;;10.75;6.55;;;15.50;58.20;;;;;;6306696;22;20011;-73
2021/01/21 12:52:01;;;;;;;9.35;5.95;;;15.50;58.20;;;;;;6307431;22;19999;-72
2021/01/21 12:54:31;;;;;;;10.40;6.70;;;15.60;58.90;;;;;;6304201;22;20424;-77
2021/01/21 12:57:11;;;;;;;11.07;5.95;;;15.60;58.40;;;;;;6277306;22;20033;-76
2021/01/21 12:59:37;;;;;;;11.25;6.25;;;15.60;58.40;;;;;;6304558;22;19991;-77
2021/01/21 13:02:15;;;;;;;11.00;6.60;;;15.60;58.30;;;;;;6301645;22;20007;-77
2021/01/21 13:04:41;;;;;;;9.82;5.90;;;15.60;58.30;;;;;;6301604;22;20003;-77
2021/01/21 13:07:11;;;;;;;9.98;6.53;;;15.60;58.30;;;;;;6303593;22;20328;-77
2021/01/21 13:09:42;;;;;;;8.35;5.68;;;15.70;58.20;;;;;;6304343;22;20002;-76
2021/01/21 13:12:12;;;;;;;9.27;6.10;;;15.70;58.20;;;;;;6303667;22;20074;-77